createdAt,value
2023-03-29T00:00:36.842Z,2.83
2023-03-29T00:04:38.905Z,2.25
2023-03-29T00:08:41.542Z,2.78
2023-03-29T00:12:43.034Z,2.08
2023-03-29T00:16:46.585Z,2.08
2023-03-29T00:20:56.012Z,2.33
2023-03-29T00:24:57.424Z,2.97
2023-03-29T00:28:58.926Z,2.17
2023-03-29T00:33:00.668Z,2.38
2023-03-29T00:37:04.065Z,2.60
2023-03-29T00:41:07.910Z,1.98
2023-03-29T00:45:12.079Z,2.35
2023-03-29T00:49:13.844Z,2.42
2023-03-29T00:53:30.714Z,2.30
2023-03-29T00:57:33.453Z,2.88
2023-03-29T01:01:55.000Z,2.55
2023-03-29T01:06:02.334Z,2.50
2023-03-29T01:10:14.455Z,2.25
2023-03-29T01:14:25.040Z,2.17
2023-03-29T01:18:26.535Z,3.03
2023-03-29T01:22:38.772Z,2.42
2023-03-29T01:26:53.626Z,2.47
2023-03-29T01:31:01.798Z,2.17
2023-03-29T01:35:22.341Z,2.63
2023-03-29T01:39:24.401Z,1.90
2023-03-29T01:43:39.552Z,2.17
2023-03-29T01:47:59.254Z,2.67
2023-03-29T01:52:10.137Z,2.20
2023-03-29T01:56:16.235Z,2.63
2023-03-29T02:00:22.611Z,1.92
2023-03-29T02:04:30.420Z,2.50
2023-03-29T02:08:32.031Z,2.47
2023-03-29T02:12:33.828Z,2.28
2023-03-29T02:16:39.085Z,2.40
2023-03-29T02:20:47.224Z,2.35
2023-03-29T02:24:50.913Z,2.70
2023-03-29T02:28:53.314Z,2.08
2023-03-29T02:33:04.396Z,2.40
2023-03-29T02:37:12.810Z,2.72
2023-03-29T02:41:16.665Z,3.50
2023-03-29T02:45:19.638Z,2.53
2023-03-29T02:49:21.438Z,2.42
2023-03-29T02:53:28.656Z,2.75
2023-03-29T02:57:32.222Z,2.55
2023-03-29T03:01:33.689Z,2.53
2023-03-29T03:05:36.001Z,2.72
2023-03-29T03:09:37.487Z,2.05
2023-03-29T03:13:38.950Z,2.50
2023-03-29T03:17:40.663Z,2.72
2023-03-29T03:21:42.075Z,2.72
2023-03-29T03:25:44.765Z,3.63
2023-03-29T03:29:46.187Z,2.47
2023-03-29T03:33:48.106Z,2.63
2023-03-29T03:37:49.623Z,3.13
2023-03-29T03:41:51.292Z,3.55
2023-03-29T03:45:53.060Z,3.03
2023-03-29T03:49:54.527Z,2.38
2023-03-29T03:53:56.067Z,3.03
2023-03-29T03:57:57.566Z,3.50
2023-03-29T04:02:00.273Z,3.38
2023-03-29T04:06:03.836Z,3.88
2023-03-29T04:10:06.230Z,3.70
2023-03-29T04:14:07.685Z,3.72
2023-03-29T04:18:09.190Z,3.78
2023-03-29T04:22:10.780Z,4.15
2023-03-29T04:26:13.689Z,3.78
2023-03-29T04:30:15.278Z,4.10
2023-03-29T04:34:16.862Z,4.15
2023-03-29T04:38:22.951Z,4.00
2023-03-29T04:42:24.467Z,4.38
2023-03-29T04:46:26.484Z,4.30
2023-03-29T04:50:28.541Z,4.40
2023-03-29T04:54:29.993Z,3.88
2023-03-29T04:58:32.541Z,4.18
2023-03-29T05:02:34.311Z,4.25
2023-03-29T05:06:36.756Z,3.97
2023-03-29T05:10:43.478Z,4.90
2023-03-29T05:14:44.902Z,4.43
2023-03-29T05:18:46.470Z,3.95
2023-03-29T05:22:48.633Z,3.85
2023-03-29T05:26:51.791Z,3.78
2023-03-29T05:31:05.081Z,3.95
2023-03-29T05:35:06.992Z,3.78
2023-03-29T05:39:08.522Z,4.28
2023-03-29T05:43:09.985Z,3.90
2023-03-29T05:47:11.919Z,4.10
2023-03-29T05:51:13.651Z,3.80
2023-03-29T05:55:15.553Z,4.63
2023-03-29T05:59:18.055Z,3.53
2023-03-29T06:03:23.682Z,4.65
2023-03-29T06:07:25.450Z,4.20
2023-03-29T06:11:27.770Z,3.83
2023-03-29T06:15:29.854Z,3.85
2023-03-29T06:19:31.769Z,3.35
2023-03-29T06:23:33.316Z,3.90
2023-03-29T06:27:35.093Z,4.50
2023-03-29T06:31:36.661Z,3.92
2023-03-29T06:35:42.739Z,3.70
2023-03-29T06:39:44.317Z,3.60
2023-03-29T06:43:45.849Z,3.38
2023-03-29T06:47:47.397Z,3.47
2023-03-29T06:51:48.836Z,3.30
2023-03-29T06:55:52.408Z,2.80
2023-03-29T06:59:54.120Z,3.05
2023-03-29T07:03:57.165Z,3.35
2023-03-29T07:08:11.473Z,3.20
2023-03-29T07:12:13.111Z,2.58
2023-03-29T07:16:14.769Z,3.88
2023-03-29T07:20:16.749Z,3.03
2023-03-29T07:24:19.221Z,2.40
2023-03-29T07:28:20.632Z,2.58
2023-03-29T07:32:23.476Z,2.17
2023-03-29T07:36:25.222Z,2.65
2023-03-29T07:40:27.230Z,2.72
2023-03-29T07:44:29.478Z,2.42
2023-03-29T07:48:31.625Z,2.63
2023-03-29T07:52:33.695Z,2.70
2023-03-29T07:56:35.468Z,2.58
2023-03-29T08:00:37.138Z,3.45
2023-03-29T08:04:38.840Z,2.80
2023-03-29T08:08:43.283Z,3.03
2023-03-29T08:12:46.356Z,3.03
2023-03-29T08:16:48.037Z,3.08
2023-03-29T08:20:50.775Z,2.75
2023-03-29T08:24:52.912Z,2.35
2023-03-29T08:28:54.349Z,1.67
2023-03-29T08:32:56.270Z,1.50
2023-03-29T08:36:59.176Z,2.85
2023-03-29T08:41:00.906Z,2.35
2023-03-29T08:45:20.527Z,1.98
2023-03-29T08:49:22.627Z,2.47
2023-03-29T08:53:41.384Z,2.47
2023-03-29T08:57:48.627Z,2.28
2023-03-29T09:01:54.248Z,2.30
2023-03-29T09:06:06.656Z,2.35
2023-03-29T09:10:15.358Z,2.85
2023-03-29T09:14:26.773Z,2.20
2023-03-29T09:18:40.172Z,2.38
2023-03-29T09:22:47.808Z,2.65
2023-03-29T09:26:56.062Z,1.90
2023-03-29T09:31:15.313Z,1.80
2023-03-29T09:35:21.334Z,2.00
2023-03-29T09:39:23.252Z,1.83
2023-03-29T09:43:36.073Z,2.60
2023-03-29T09:47:40.691Z,1.75
2023-03-29T09:51:43.124Z,2.20
2023-03-29T09:55:48.452Z,2.42
2023-03-29T09:59:54.193Z,2.38
2023-03-29T10:03:56.744Z,2.40
2023-03-29T10:08:01.162Z,1.85
2023-03-29T10:12:06.767Z,2.30
2023-03-29T10:16:18.241Z,2.95
2023-03-29T10:20:19.840Z,2.30
2023-03-29T10:24:23.605Z,2.80
2023-03-29T10:28:27.588Z,1.77
2023-03-29T10:32:35.627Z,2.20
2023-03-29T10:36:41.939Z,2.55
2023-03-29T10:40:59.991Z,2.50
2023-03-29T10:45:01.689Z,2.28
2023-03-29T10:49:19.137Z,2.20
2023-03-29T10:53:26.967Z,1.92
2023-03-29T10:57:40.749Z,3.00
2023-03-29T11:01:58.487Z,2.65
2023-03-29T11:06:19.370Z,2.38
2023-03-29T11:10:51.327Z,2.10
2023-03-29T11:15:18.950Z,2.92
2023-03-29T11:19:44.349Z,2.20
2023-03-29T11:24:01.513Z,2.35
2023-03-29T11:28:14.751Z,1.77
2023-03-29T11:32:28.336Z,2.33
2023-03-29T11:36:57.131Z,2.55
2023-03-29T11:41:18.585Z,2.83
2023-03-29T11:45:30.181Z,2.05
2023-03-29T11:49:43.086Z,2.70
2023-03-29T11:53:59.268Z,3.05
2023-03-29T11:58:06.541Z,3.15
2023-03-29T12:02:58.595Z,2.75
2023-03-29T12:07:17.784Z,3.10
2023-03-29T12:11:37.889Z,3.55
2023-03-29T12:15:50.601Z,2.95
2023-03-29T12:20:10.974Z,2.55
2023-03-29T12:24:15.587Z,2.97
2023-03-29T12:28:36.621Z,3.47
2023-03-29T12:32:51.069Z,3.75
2023-03-29T12:37:11.395Z,3.85
2023-03-29T12:41:21.799Z,3.08
2023-03-29T12:45:58.042Z,2.65
2023-03-29T12:50:01.611Z,2.50
2023-03-29T12:54:13.252Z,3.35
2023-03-29T12:58:39.836Z,2.92
2023-03-29T13:02:45.703Z,3.45
2023-03-29T13:06:47.258Z,3.42
2023-03-29T13:10:56.179Z,2.80
2023-03-29T13:15:25.172Z,2.77
2023-03-29T13:19:39.847Z,2.13
2023-03-29T13:23:53.160Z,2.13
2023-03-29T13:28:11.463Z,2.67
2023-03-29T13:32:47.318Z,2.00
2023-03-29T13:37:37.326Z,3.05
2023-03-29T13:41:38.748Z,3.38
2023-03-29T13:45:40.470Z,3.22
2023-03-29T13:49:46.477Z,3.92
2023-03-29T13:53:53.970Z,2.38
2023-03-29T13:58:01.536Z,3.50
2023-03-29T14:02:05.206Z,2.63
2023-03-29T14:06:08.664Z,2.13
2023-03-29T14:10:21.214Z,2.33
2023-03-29T14:14:28.607Z,5.07
2023-03-29T14:18:37.171Z,2.67
2023-03-29T14:22:38.676Z,3.05
2023-03-29T14:26:45.923Z,3.60
2023-03-29T14:30:47.998Z,3.15
2023-03-29T14:34:50.469Z,3.50
2023-03-29T14:39:05.543Z,3.28
2023-03-29T14:43:08.266Z,3.40
2023-03-29T14:47:23.805Z,3.90
2023-03-29T14:51:30.553Z,3.47
2023-03-29T14:55:32.822Z,2.03
2023-03-29T14:59:34.217Z,4.80
2023-03-29T15:03:49.891Z,3.70
2023-03-29T15:07:51.467Z,4.10
2023-03-29T15:11:55.555Z,3.60
2023-03-29T15:16:03.940Z,4.38
2023-03-29T15:20:24.594Z,4.13
2023-03-29T15:24:41.200Z,4.70
2023-03-29T15:28:47.253Z,4.20
2023-03-29T15:32:48.957Z,2.55
2023-03-29T15:36:51.936Z,4.30
2023-03-29T15:40:53.491Z,4.40
2023-03-29T15:44:56.315Z,4.13
2023-03-29T15:48:57.904Z,4.28
2023-03-29T15:53:08.612Z,4.53
2023-03-29T15:57:16.215Z,4.20
2023-03-29T16:01:34.617Z,4.13
2023-03-29T16:05:36.539Z,4.07
2023-03-29T16:09:38.277Z,4.35
2023-03-29T16:13:39.866Z,4.68
2023-03-29T16:17:41.708Z,4.70
2023-03-29T16:21:44.867Z,5.75
2023-03-29T16:25:46.391Z,4.47
2023-03-29T16:29:47.895Z,4.75
2023-03-29T16:33:49.656Z,4.90
2023-03-29T16:37:51.107Z,4.22
2023-03-29T16:41:52.596Z,4.50
2023-03-29T16:45:54.224Z,5.10
2023-03-29T16:49:56.069Z,4.85
2023-03-29T16:54:00.630Z,4.30
2023-03-29T16:58:05.860Z,4.97
2023-03-29T17:02:08.534Z,4.85
2023-03-29T17:06:13.646Z,5.28
2023-03-29T17:10:15.499Z,4.75
2023-03-29T17:14:17.144Z,4.28
2023-03-29T17:18:23.662Z,4.97
2023-03-29T17:22:25.877Z,5.03
2023-03-29T17:26:27.407Z,5.47
2023-03-29T17:30:29.109Z,4.93
2023-03-29T17:34:32.837Z,5.00
2023-03-29T17:38:34.654Z,4.60
2023-03-29T17:42:36.209Z,5.45
2023-03-29T17:46:38.622Z,5.85
2023-03-29T17:50:40.167Z,5.80
2023-03-29T17:54:41.709Z,5.05
2023-03-29T17:58:43.220Z,4.07
2023-03-29T18:02:44.775Z,4.60
2023-03-29T18:06:46.431Z,5.28
2023-03-29T18:10:47.936Z,4.93
2023-03-29T18:14:49.406Z,5.65
2023-03-29T18:18:51.460Z,4.85
2023-03-29T18:22:53.000Z,4.95
2023-03-29T18:26:54.544Z,6.05
2023-03-29T18:30:56.128Z,7.82
2023-03-29T18:34:57.574Z,5.57
2023-03-29T18:39:05.332Z,5.28
2023-03-29T18:43:06.862Z,4.47
2023-03-29T18:47:08.519Z,4.75
2023-03-29T18:51:12.581Z,5.57
2023-03-29T18:55:14.130Z,6.05
2023-03-29T18:59:19.418Z,6.28
2023-03-29T19:03:21.468Z,8.73
2023-03-29T19:07:23.020Z,5.10
2023-03-29T19:11:26.024Z,5.10
2023-03-29T19:15:29.145Z,4.40
2023-03-29T19:19:30.685Z,5.82
2023-03-29T19:23:32.227Z,4.90
2023-03-29T19:27:33.921Z,4.43
2023-03-29T19:31:37.734Z,4.70
2023-03-29T19:35:39.336Z,5.07
2023-03-29T19:39:41.422Z,5.35
2023-03-29T19:43:43.130Z,4.93
2023-03-29T19:47:47.595Z,5.25
2023-03-29T19:51:49.358Z,5.07
2023-03-29T19:55:50.821Z,5.20
2023-03-29T19:59:54.083Z,5.18
2023-03-29T20:03:55.784Z,4.88
2023-03-29T20:07:57.412Z,5.13
2023-03-29T20:11:59.803Z,4.35
2023-03-29T20:16:01.296Z,5.03
2023-03-29T20:20:08.160Z,4.95
2023-03-29T20:24:10.448Z,4.55
2023-03-29T20:28:12.645Z,5.50
2023-03-29T20:32:14.356Z,4.97
2023-03-29T20:36:22.937Z,6.72
2023-03-29T20:40:24.785Z,6.18
2023-03-29T20:44:28.225Z,5.07
2023-03-29T20:48:32.699Z,4.53
2023-03-29T20:52:35.893Z,5.05
2023-03-29T20:56:39.929Z,4.97
2023-03-29T21:00:41.513Z,5.72
2023-03-29T21:04:44.036Z,5.78
2023-03-29T21:08:46.902Z,5.10
2023-03-29T21:12:48.454Z,4.75
2023-03-29T21:16:49.926Z,4.68
2023-03-29T21:20:51.359Z,5.28
2023-03-29T21:24:52.899Z,5.18
2023-03-29T21:28:54.434Z,4.88
2023-03-29T21:32:56.168Z,4.78
2023-03-29T21:36:57.759Z,4.82
2023-03-29T21:40:59.618Z,4.97
2023-03-29T21:45:01.531Z,4.80
2023-03-29T21:49:03.042Z,4.95
2023-03-29T21:53:04.560Z,5.30
2023-03-29T21:57:06.031Z,5.20
2023-03-29T22:01:09.884Z,4.60
2023-03-29T22:05:12.225Z,5.65
2023-03-29T22:09:13.723Z,4.88
2023-03-29T22:13:15.330Z,5.07
2023-03-29T22:17:16.824Z,4.82
2023-03-29T22:21:24.190Z,5.05
2023-03-29T22:25:26.357Z,4.47
2023-03-29T22:29:27.823Z,4.82
2023-03-29T22:33:29.394Z,5.22
2023-03-29T22:37:31.062Z,5.18
2023-03-29T22:41:32.597Z,4.97
2023-03-29T22:45:34.145Z,4.50
2023-03-29T22:49:35.790Z,4.95
2023-03-29T22:53:37.318Z,4.80
2023-03-29T22:57:38.788Z,4.78
2023-03-29T23:01:40.455Z,4.82
2023-03-29T23:05:41.984Z,4.20
2023-03-29T23:09:43.422Z,4.35
2023-03-29T23:13:48.622Z,4.88
2023-03-29T23:17:50.726Z,4.60
2023-03-29T23:21:52.705Z,4.00
2023-03-29T23:25:55.532Z,3.80
2023-03-29T23:29:59.461Z,4.32
2023-03-29T23:34:00.877Z,4.18
2023-03-29T23:38:02.688Z,4.00
2023-03-29T23:42:04.245Z,4.97
2023-03-29T23:46:11.754Z,4.15
2023-03-29T23:50:14.369Z,4.38
2023-03-29T23:54:17.143Z,4.28
2023-03-29T23:58:18.564Z,4.05
